Time;durP1;ratioP1;P1;durP2;ratioP2;P2;SDS_P1;SDS_P2;PMS_P1;PMS_P2;Temp;Humidity;BMP_temperature;BMP_pressure;BME280_temperature;BME280_humidity;BME280_pressure;Samples;Min_cycle;Max_cycle;Signal;HPM_P1;HPM_P2
2023/05/07 00:00:02;;;;;;;15.30;13.70;;;;;;;8.99;100.00;101678.44;5050163;28;20186;-73
2023/05/07 00:02:35;;;;;;;17.73;14.38;;;;;;;8.93;100.00;101669.16;5052896;28;20676;-75
2023/05/07 00:05:07;;;;;;;18.40;14.30;;;;;;;8.93;100.00;101679.97;5056765;28;20280;-73
2023/05/07 00:07:38;;;;;;;15.65;14.00;;;;;;;8.91;100.00;101671.19;5051980;28;20202;-74
2023/05/07 00:10:16;;;;;;;18.65;14.55;;;;;;;8.93;100.00;101677.25;5051954;28;20731;-76
2023/05/07 00:12:46;;;;;;;18.10;14.95;;;;;;;8.95;100.00;101683.34;5040217;28;20259;-73
2023/05/07 00:15:15;;;;;;;19.55;15.40;;;;;;;8.95;100.00;101677.94;5060805;28;20252;-72
2023/05/07 00:17:44;;;;;;;16.98;15.18;;;;;;;8.92;100.00;101672.88;5045540;28;20196;-74
2023/05/07 00:20:14;;;;;;;17.95;16.10;;;;;;;8.87;100.00;101679.78;5056360;28;20186;-73
2023/05/07 00:22:43;;;;;;;19.17;14.50;;;;;;;8.89;100.00;101678.63;5054495;28;20219;-74
2023/05/07 00:25:13;;;;;;;14.82;13.32;;;;;;;8.91;100.00;101679.28;5033274;28;20228;-74
2023/05/07 00:27:43;;;;;;;21.48;14.52;;;;;;;8.88;100.00;101670.69;5048815;28;20289;-73
2023/05/07 00:30:13;;;;;;;15.02;13.32;;;;;;;8.85;100.00;101682.69;5048397;28;20194;-73
2023/05/07 00:32:45;;;;;;;16.33;13.70;;;;;;;8.91;100.00;101676.59;5045405;28;20251;-75
2023/05/07 00:35:14;;;;;;;15.60;13.38;;;;;;;8.86;100.00;101678.94;5031777;28;20228;-73
2023/05/07 00:37:43;;;;;;;16.23;14.25;;;;;;;8.80;100.00;101668.88;5048271;28;20241;-73
2023/05/07 00:40:14;;;;;;;17.17;13.85;;;;;;;8.88;100.00;101671.53;5039944;28;20198;-75
2023/05/07 00:42:46;;;;;;;15.40;13.80;;;;;;;8.73;100.00;101668.69;5029410;28;20198;-73
2023/05/07 00:45:17;;;;;;;16.40;13.88;;;;;;;8.66;100.00;101665.03;5030193;28;20221;-74
2023/05/07 00:47:46;;;;;;;17.00;14.75;;;;;;;8.68;100.00;101664.81;5045857;28;20689;-73
2023/05/07 00:50:15;;;;;;;13.85;12.45;;;;;;;8.69;100.00;101674.63;5026461;28;20271;-74
2023/05/07 00:52:44;;;;;;;15.25;13.65;;;;;;;8.75;100.00;101678.50;5031265;28;20194;-75
2023/05/07 00:55:15;;;;;;;16.35;13.00;;;;;;;8.80;100.00;101674.25;5041507;28;20213;-73
2023/05/07 00:57:45;;;;;;;17.48;13.90;;;;;;;8.89;100.00;101680.47;5051547;28;20225;-75
2023/05/07 01:00:15;;;;;;;14.50;13.00;;;;;;;8.88;100.00;101681.50;5055148;28;20194;-74
2023/05/07 01:02:44;;;;;;;15.75;13.77;;;;;;;8.82;100.00;101677.63;5033240;28;20190;-75
2023/05/07 01:05:17;;;;;;;15.10;13.32;;;;;;;8.85;100.00;101681.84;5050417;28;20617;-76
2023/05/07 01:07:48;;;;;;;15.13;13.50;;;;;;;8.84;100.00;101681.00;5051172;28;20207;-75
2023/05/07 01:10:20;;;;;;;14.68;12.27;;;;;;;8.89;100.00;101675.94;5051779;28;21112;-75
2023/05/07 01:12:51;;;;;;;14.80;13.02;;;;;;;8.90;100.00;101672.22;5030783;28;20226;-76
2023/05/07 01:15:20;;;;;;;16.23;13.88;;;;;;;8.96;100.00;101671.50;5052015;28;20685;-74
2023/05/07 01:17:50;;;;;;;16.63;13.60;;;;;;;8.87;100.00;101675.25;5032309;28;20285;-73
2023/05/07 01:20:25;;;;;;;16.60;14.20;;;;;;;8.92;100.00;101678.28;5030603;28;20219;-75
2023/05/07 01:23:01;;;;;;;18.55;16.60;;;;;;;8.86;100.00;101672.75;5028063;28;20429;-74
2023/05/07 01:25:31;;;;;;;16.98;14.95;;;;;;;8.86;100.00;101684.34;5026704;28;20639;-76
2023/05/07 01:28:03;;;;;;;18.00;14.00;;;;;;;8.79;100.00;101685.22;5047396;28;20776;-74
2023/05/07 01:30:37;;;;;;;16.95;15.07;;;;;;;8.85;100.00;101688.09;5029497;28;20249;-76
2023/05/07 01:33:14;;;;;;;17.88;14.18;;;;;;;8.89;100.00;101694.81;5049099;28;20257;-74
2023/05/07 01:35:47;;;;;;;17.27;12.60;;;;;;;8.81;100.00;101686.72;5026278;28;20194;-74
2023/05/07 01:38:19;;;;;;;15.38;13.77;;;;;;;8.78;100.00;101689.78;5047204;28;20190;-74
2023/05/07 01:40:48;;;;;;;18.27;14.10;;;;;;;8.75;100.00;101682.03;5044818;28;20212;-74
2023/05/07 01:43:18;;;;;;;15.95;14.00;;;;;;;8.84;100.00;101686.41;5045332;28;20666;-72
2023/05/07 01:45:48;;;;;;;19.10;15.43;;;;;;;8.79;100.00;101688.78;5047779;28;20361;-73
2023/05/07 01:48:18;;;;;;;15.20;13.60;;;;;;;8.73;100.00;101689.44;5031363;28;20206;-75
2023/05/07 01:50:48;;;;;;;15.25;13.63;;;;;;;8.76;100.00;101694.53;5031816;28;20194;-75
2023/05/07 01:53:19;;;;;;;18.52;13.80;;;;;;;8.77;99.85;101690.78;5048990;28;20227;-74
2023/05/07 01:55:48;;;;;;;14.52;13.10;;;;;;;8.74;100.00;101691.13;5029204;28;20218;-75
2023/05/07 01:58:18;;;;;;;13.32;11.70;;;;;;;8.80;100.00;101686.91;5024499;28;20213;-74
2023/05/07 02:00:47;;;;;;;16.83;12.05;;;;;;;8.77;100.00;101690.78;5034037;28;20271;-75
2023/05/07 02:03:16;;;;;;;15.15;13.13;;;;;;;8.79;100.00;101688.78;5035092;28;20208;-73
2023/05/07 02:05:54;;;;;;;16.23;14.52;;;;;;;8.89;99.45;101686.72;5028434;28;20288;-75
2023/05/07 02:08:35;;;;;;;16.30;11.80;;;;;;;8.75;99.43;101692.81;5030187;28;20208;-75
2023/05/07 02:11:05;;;;;;;14.63;12.73;;;;;;;8.76;99.47;101699.91;5026588;28;20205;-72
2023/05/07 02:13:35;;;;;;;15.00;12.68;;;;;;;8.74;99.61;101699.22;5040846;28;20261;-74
2023/05/07 02:16:05;;;;;;;15.68;13.32;;;;;;;8.78;99.53;101697.88;5030590;28;20206;-73
2023/05/07 02:18:35;;;;;;;17.20;13.32;;;;;;;8.78;99.51;101700.56;5028338;28;20192;-75
2023/05/07 02:21:05;;;;;;;14.70;13.10;;;;;;;8.80;99.11;101706.66;5024136;28;20222;-74
2023/05/07 02:23:35;;;;;;;13.73;12.30;;;;;;;8.79;99.05;101704.13;5050939;28;20225;-75
2023/05/07 02:26:05;;;;;;;16.10;12.80;;;;;;;8.77;99.38;101704.28;5051661;28;20198;-76
2023/05/07 02:28:35;;;;;;;19.13;13.38;;;;;;;8.77;99.35;101712.38;5044261;28;20294;-74
2023/05/07 02:31:06;;;;;;;13.13;11.63;;;;;;;8.80;99.29;101716.59;5027394;28;20206;-73
2023/05/07 02:33:36;;;;;;;14.63;13.00;;;;;;;8.76;99.41;101716.09;5026435;28;20554;-74
2023/05/07 02:36:09;;;;;;;16.90;13.75;;;;;;;8.78;99.17;101708.66;5044871;28;20219;-72
2023/05/07 02:38:47;;;;;;;14.13;12.32;;;;;;;8.75;99.98;101703.63;5034245;28;20213;-75
2023/05/07 02:41:16;;;;;;;15.02;13.10;;;;;;;8.77;99.60;101701.56;5048530;28;20224;-74
2023/05/07 02:43:45;;;;;;;17.40;13.63;;;;;;;8.80;99.77;101706.66;5049313;28;20228;-76
2023/05/07 02:46:15;;;;;;;19.17;13.63;;;;;;;8.76;99.71;101708.00;5038105;28;20183;-74
2023/05/07 02:48:48;;;;;;;14.00;12.60;;;;;;;8.78;99.66;101708.66;5035083;28;20292;-74
2023/05/07 02:51:20;;;;;;;15.30;12.60;;;;;;;8.77;99.81;101720.47;5048178;28;20579;-75
2023/05/07 02:53:55;;;;;;;16.50;13.23;;;;;;;8.75;99.65;101722.50;5030819;28;20269;-75
2023/05/07 02:56:26;;;;;;;15.80;13.23;;;;;;;8.76;99.33;101721.50;5023166;28;20225;-75
2023/05/07 02:58:56;;;;;;;17.70;13.18;;;;;;;8.81;98.71;101732.59;5045718;28;20271;-77
2023/05/07 03:01:29;;;;;;;15.05;11.95;;;;;;;8.81;98.54;101731.78;5031477;28;20252;-75
2023/05/07 03:04:07;;;;;;;13.93;12.38;;;;;;;8.75;98.47;101732.47;5026778;28;21451;-74
2023/05/07 03:06:36;;;;;;;13.50;12.10;;;;;;;8.80;98.06;101738.19;5024245;28;20206;-73
2023/05/07 03:09:07;;;;;;;15.38;10.90;;;;;;;8.84;97.72;101745.78;5050400;28;20231;-73
2023/05/07 03:11:37;;;;;;;12.93;10.73;;;;;;;8.86;97.21;101732.94;5049182;28;20204;-71
2023/05/07 03:14:06;;;;;;;14.57;12.40;;;;;;;8.80;96.96;101728.25;5049549;28;20344;-72
2023/05/07 03:16:35;;;;;;;14.90;11.25;;;;;;;8.74;96.93;101731.63;5026718;28;20202;-72
2023/05/07 03:19:04;;;;;;;12.60;10.98;;;;;;;8.69;97.42;101739.38;5030002;28;20691;-74
2023/05/07 03:21:34;;;;;;;12.52;11.10;;;;;;;8.64;97.81;101736.34;5031791;28;20195;-75
2023/05/07 03:24:03;;;;;;;14.95;11.13;;;;;;;8.70;97.41;101735.66;5028490;28;20213;-74
2023/05/07 03:26:33;;;;;;;14.90;10.95;;;;;;;8.69;97.25;101737.53;5033369;28;20629;-73
2023/05/07 03:29:03;;;;;;;12.55;11.10;;;;;;;8.77;97.26;101749.31;5059094;28;20231;-74
2023/05/07 03:31:32;;;;;;;12.65;11.30;;;;;;;8.78;96.81;101741.06;5046661;28;20186;-73
2023/05/07 03:34:02;;;;;;;12.18;10.80;;;;;;;8.76;96.79;101743.09;5034592;28;20214;-77
2023/05/07 03:36:31;;;;;;;12.35;9.98;;;;;;;8.75;96.97;101752.19;5033575;28;20219;-72
2023/05/07 03:39:01;;;;;;;13.68;10.93;;;;;;;8.74;96.70;101739.72;5037744;28;20194;-74
2023/05/07 03:41:39;;;;;;;10.70;9.70;;;;;;;8.69;96.42;101740.22;5024224;28;20198;-74
2023/05/07 03:44:08;;;;;;;12.18;10.50;;;;;;;8.69;96.84;101740.22;5047903;28;20590;-74
2023/05/07 03:46:38;;;;;;;12.82;11.07;;;;;;;8.65;97.60;101740.72;5024097;28;20191;-71
2023/05/07 03:49:08;;;;;;;13.85;11.45;;;;;;;8.66;97.54;101747.81;5023300;28;20199;-73
2023/05/07 03:51:38;;;;;;;13.57;11.98;;;;;;;8.65;97.74;101751.53;5035741;28;20545;-76
2023/05/07 03:54:09;;;;;;;14.13;11.20;;;;;;;8.66;98.27;101761.31;5029853;28;20214;-71
2023/05/07 03:56:45;;;;;;;12.45;10.80;;;;;;;8.65;97.71;101755.06;5029371;28;20296;-76
2023/05/07 03:59:15;;;;;;;12.38;10.65;;;;;;;8.61;97.70;101756.44;5029276;28;20202;-74
2023/05/07 04:01:46;;;;;;;12.68;10.35;;;;;;;8.65;97.61;101767.72;5034582;28;20202;-74
2023/05/07 04:04:18;;;;;;;12.10;10.27;;;;;;;8.61;97.77;101756.44;5033680;28;20247;-74
2023/05/07 04:06:47;;;;;;;12.25;10.18;;;;;;;8.66;97.99;101762.16;5045764;28;20195;-74
2023/05/07 04:09:17;;;;;;;10.82;9.90;;;;;;;8.70;96.98;101766.19;5024784;28;20254;-74
2023/05/07 04:11:49;;;;;;;12.30;10.70;;;;;;;8.72;96.90;101763.31;5030386;28;20222;-71
2023/05/07 04:14:18;;;;;;;11.70;10.60;;;;;;;8.78;96.33;101762.66;5049332;28;20264;-73
2023/05/07 04:16:48;;;;;;;10.32;9.32;;;;;;;8.75;96.61;101762.16;5035115;28;20274;-75
2023/05/07 04:19:17;;;;;;;11.10;9.98;;;;;;;8.68;96.39;101767.38;5029111;28;20567;-75
2023/05/07 04:21:50;;;;;;;10.02;9.02;;;;;;;8.77;96.08;101760.94;5023077;28;20325;-75
2023/05/07 04:24:19;;;;;;;11.25;9.85;;;;;;;8.79;95.50;101768.88;5048395;28;20220;-76
2023/05/07 04:26:50;;;;;;;11.80;9.20;;;;;;;8.73;95.76;101770.41;5033967;28;20283;-72
2023/05/07 04:29:22;;;;;;;10.35;9.35;;;;;;;8.70;95.74;101765.34;5052502;28;20620;-74
2023/05/07 04:31:52;;;;;;;9.55;8.38;;;;;;;8.74;95.62;101777.50;5025787;28;20202;-75
2023/05/07 04:34:22;;;;;;;13.38;9.70;;;;;;;8.75;95.68;101773.78;5051124;28;20211;-74
2023/05/07 04:36:52;;;;;;;13.32;10.70;;;;;;;8.82;95.25;101785.56;5052118;28;20205;-75
2023/05/07 04:39:21;;;;;;;11.38;10.05;;;;;;;8.80;94.87;101775.97;5050730;28;20204;-74
2023/05/07 04:41:52;;;;;;;14.30;11.13;;;;;;;8.78;95.10;101778.84;5051323;28;20293;-74
2023/05/07 04:44:22;;;;;;;13.55;11.18;;;;;;;8.85;94.57;101779.84;5026028;28;20218;-71
2023/05/07 04:46:51;;;;;;;11.57;10.23;;;;;;;8.86;94.15;101778.81;5047213;28;20190;-72
2023/05/07 04:49:20;;;;;;;11.48;10.00;;;;;;;8.92;93.99;101790.81;5034900;28;20296;-73
2023/05/07 04:51:51;;;;;;;13.77;10.02;;;;;;;8.93;93.29;101785.25;5035216;28;20195;-74
2023/05/07 04:54:22;;;;;;;12.00;10.18;;;;;;;9.00;93.06;101788.13;5029850;28;20227;-74
2023/05/07 04:56:53;;;;;;;13.80;9.52;;;;;;;9.01;92.78;101789.78;5057083;28;20574;-74
2023/05/07 04:59:23;;;;;;;9.45;8.50;;;;;;;9.05;92.34;101791.97;5038204;28;20201;-74
2023/05/07 05:01:52;;;;;;;12.95;9.50;;;;;;;9.10;91.00;101796.88;5030046;28;20301;-74
2023/05/07 05:04:22;;;;;;;11.40;9.43;;;;;;;9.12;90.74;101798.38;5055016;28;20224;-74
2023/05/07 05:06:51;;;;;;;11.73;8.98;;;;;;;9.18;89.77;101793.31;5036632;28;20206;-75
2023/05/07 05:09:20;;;;;;;8.07;7.32;;;;;;;9.26;89.43;101798.69;5057830;28;20195;-73
2023/05/07 05:11:49;;;;;;;9.90;8.88;;;;;;;9.32;88.41;101798.88;5053084;28;20186;-72
2023/05/07 05:14:27;;;;;;;10.55;7.78;;;;;;;9.45;87.49;101803.72;5054290;28;20230;-74
2023/05/07 05:17:04;;;;;;;9.18;7.32;;;;;;;9.40;87.56;101801.53;5049123;28;20646;-75
2023/05/07 05:19:34;;;;;;;11.80;8.02;;;;;;;9.67;86.53;101805.69;5049669;28;20192;-75
2023/05/07 05:22:03;;;;;;;9.63;8.63;;;;;;;10.41;83.07;101809.75;5048587;28;20241;-75
2023/05/07 05:24:33;;;;;;;8.88;7.97;;;;;;;10.37;81.64;101816.53;5030386;28;20223;-74
2023/05/07 05:27:03;;;;;;;10.32;7.40;;;;;;;10.38;81.04;101807.41;5050440;28;20206;-74
2023/05/07 05:29:34;;;;;;;11.45;7.65;;;;;;;10.44;80.64;101801.28;5034098;28;20214;-74
2023/05/07 05:32:03;;;;;;;9.52;6.95;;;;;;;10.55;80.71;101806.28;5027563;28;20339;-75
2023/05/07 05:34:34;;;;;;;9.30;8.38;;;;;;;10.50;80.09;101800.56;5046352;28;20231;-73
2023/05/07 05:37:04;;;;;;;10.38;7.82;;;;;;;10.19;81.69;101802.44;5035094;28;20269;-74
2023/05/07 05:39:33;;;;;;;10.00;8.40;;;;;;;10.22;81.73;101808.34;5033686;28;20234;-75
2023/05/07 05:42:03;;;;;;;9.77;7.30;;;;;;;10.15;81.66;101811.91;5025090;28;20203;-75
2023/05/07 05:44:36;;;;;;;12.85;9.27;;;;;;;9.97;82.21;101804.88;5028434;28;20222;-75
2023/05/07 05:47:05;;;;;;;11.73;9.63;;;;;;;9.94;82.71;101798.97;5033000;28;20751;-74
2023/05/07 05:49:36;;;;;;;11.15;7.57;;;;;;;10.21;82.37;101811.25;5032756;28;20261;-75
2023/05/07 05:52:06;;;;;;;9.70;8.80;;;;;;;10.27;81.95;101815.91;5028842;28;20804;-75
2023/05/07 05:54:38;;;;;;;10.87;7.63;;;;;;;10.32;81.02;101819.78;5020037;28;20284;-76
2023/05/07 05:57:07;;;;;;;11.60;8.67;;;;;;;10.61;80.84;101821.78;5026050;28;20428;-76
2023/05/07 05:59:41;;;;;;;11.80;8.70;;;;;;;11.07;78.51;101819.06;5028078;28;20504;-75
2023/05/07 06:02:10;;;;;;;9.00;7.60;;;;;;;11.07;77.97;101822.63;5028930;28;20417;-74
2023/05/07 06:04:40;;;;;;;9.53;8.63;;;;;;;11.15;77.85;101817.13;5053199;28;20465;-76
2023/05/07 06:07:09;;;;;;;9.57;7.70;;;;;;;11.41;76.08;101822.13;5033606;28;20474;-74
2023/05/07 06:09:38;;;;;;;8.87;7.27;;;;;;;10.99;77.15;101833.50;5031307;28;20737;-73
2023/05/07 06:12:07;;;;;;;8.80;7.90;;;;;;;10.97;77.94;101840.13;5035547;28;20417;-73
2023/05/07 06:14:39;;;;;;;8.87;7.97;;;;;;;10.91;77.48;101830.88;5034704;28;20466;-73
2023/05/07 06:17:09;;;;;;;11.03;7.97;;;;;;;11.08;77.43;101831.59;5050833;28;20530;-74
2023/05/07 06:19:38;;;;;;;9.70;8.70;;;;;;;11.16;75.93;101829.66;5032311;28;20462;-72
2023/05/07 06:22:08;;;;;;;9.67;8.10;;;;;;;10.93;77.56;101822.56;5039314;28;20450;-75
2023/05/07 06:24:37;;;;;;;9.70;7.60;;;;;;;11.13;77.25;101832.72;5061125;28;20449;-75
2023/05/07 06:27:07;;;;;;;10.53;8.10;;;;;;;11.62;76.87;101830.34;5060175;28;20441;-75
2023/05/07 06:29:38;;;;;;;8.20;7.00;;;;;;;11.47;75.01;101842.22;5045456;28;20453;-75
2023/05/07 06:32:14;;;;;;;8.40;7.47;;;;;;;11.45;75.09;101839.69;5040100;28;20992;-74
2023/05/07 06:34:45;;;;;;;8.93;8.00;;;;;;;11.46;74.83;101844.09;5060433;28;20469;-75
2023/05/07 06:37:16;;;;;;;8.97;7.60;;;;;;;11.23;76.20;101840.59;5030764;28;20962;-73
2023/05/07 06:39:54;;;;;;;8.50;7.20;;;;;;;11.36;76.00;101846.22;5042868;28;20461;-74
2023/05/07 06:42:24;;;;;;;8.60;7.90;;;;;;;11.44;75.91;101856.13;5059881;28;20684;-74
2023/05/07 06:45:00;;;;;;;8.53;7.50;;;;;;;11.26;74.59;101854.63;5032454;28;20840;-74
2023/05/07 06:47:31;;;;;;;8.83;6.97;;;;;;;11.25;75.36;101854.78;5034176;28;21042;-73
2023/05/07 06:50:00;;;;;;;11.63;7.73;;;;;;;10.99;77.12;101865.19;5046011;28;20437;-73
2023/05/07 06:52:32;;;;;;;8.60;7.20;;;;;;;11.40;76.28;101871.94;5036592;28;20457;-75
2023/05/07 06:55:03;;;;;;;9.40;6.83;;;;;;;11.49;74.75;101868.09;5036854;28;20447;-76
2023/05/07 06:57:32;;;;;;;8.87;7.90;;;;;;;11.43;74.97;101871.53;5035311;28;20443;-74
2023/05/07 07:00:04;;;;;;;13.03;8.00;;;;;;;11.40;74.80;101868.38;5046582;28;20448;-75
2023/05/07 07:02:35;;;;;;;7.77;6.93;;;;;;;11.52;74.51;101858.78;5036864;28;20445;-75
2023/05/07 07:05:08;;;;;;;8.47;7.60;;;;;;;11.45;74.40;101865.94;5054406;28;20424;-73
2023/05/07 07:07:38;;;;;;;9.40;6.67;;;;;;;11.50;74.01;101872.50;5049956;28;20458;-76
2023/05/07 07:10:09;;;;;;;7.20;6.53;;;;;;;11.46;74.72;101867.66;5052240;28;20417;-75
2023/05/07 07:12:39;;;;;;;12.33;8.63;;;;;;;11.48;74.29;101869.13;5033655;28;20540;-75
2023/05/07 07:15:11;;;;;;;8.33;7.30;;;;;;;11.74;73.17;101871.44;5033953;28;20845;-73
2023/05/07 07:17:40;;;;;;;6.00;5.40;;;;;;;11.91;71.55;101866.69;5027874;28;20976;-75
2023/05/07 07:20:10;;;;;;;7.37;6.10;;;;;;;11.42;73.01;101869.88;5046867;28;20480;-74
2023/05/07 07:22:40;;;;;;;7.37;6.37;;;;;;;11.32;73.68;101878.28;5020761;28;20418;-74
2023/05/07 07:25:10;;;;;;;6.60;5.97;;;;;;;11.42;73.73;101872.59;5031220;28;20983;-74
2023/05/07 07:27:40;;;;;;;9.57;7.70;;;;;;;11.49;73.69;101878.09;5031352;28;20443;-76
2023/05/07 07:30:12;;;;;;;7.03;5.43;;;;;;;11.91;72.90;101875.66;5030336;28;20937;-76
2023/05/07 07:32:43;;;;;;;6.90;6.20;;;;;;;11.79;71.59;101879.00;5038662;28;20530;-74
2023/05/07 07:35:13;;;;;;;6.17;4.73;;;;;;;11.89;71.18;101879.59;5035297;28;20439;-74
2023/05/07 07:37:43;;;;;;;6.00;4.80;;;;;;;12.05;70.52;101871.28;5033406;28;20431;-73
2023/05/07 07:40:15;;;;;;;7.90;6.13;;;;;;;12.20;70.28;101878.34;5027760;28;20452;-74
2023/05/07 07:42:45;;;;;;;6.50;5.43;;;;;;;12.29;69.40;101868.25;5032816;28;20454;-74
2023/05/07 07:45:16;;;;;;;6.00;5.40;;;;;;;12.27;70.02;101862.16;5035036;28;20587;-75
2023/05/07 07:47:50;;;;;;;6.20;4.90;;;;;;;12.50;68.47;101857.41;5049423;28;20432;-75
2023/05/07 07:50:19;;;;;;;7.93;5.90;;;;;;;12.15;68.94;101858.25;5050510;28;20460;-74
2023/05/07 07:53:09;;;;;;;6.47;5.47;;;;;;;12.04;69.93;101861.44;5033760;28;20575;-75
2023/05/07 07:55:40;;;;;;;8.40;5.53;;;;;;;12.14;69.60;101867.41;5035487;28;20450;-75
2023/05/07 07:58:12;;;;;;;7.10;5.03;;;;;;;12.24;68.84;101861.69;5026223;28;20451;-77
2023/05/07 08:00:43;;;;;;;5.17;4.67;;;;;;;12.42;68.89;101853.97;5032006;28;21001;-76
2023/05/07 08:03:14;;;;;;;4.90;4.40;;;;;;;12.45;67.94;101853.59;5031452;28;20417;-76
2023/05/07 08:05:46;;;;;;;4.73;4.23;;;;;;;12.36;66.36;101861.00;5035860;28;20478;-74
2023/05/07 08:08:16;;;;;;;5.47;4.87;;;;;;;12.33;66.34;101861.41;5034242;28;20462;-77
2023/05/07 08:10:45;;;;;;;4.77;4.10;;;;;;;12.62;65.99;101869.47;5038513;28;20950;-73
2023/05/07 08:13:22;;;;;;;4.30;3.90;;;;;;;12.77;65.87;101863.16;5035528;28;20417;-75
2023/05/07 08:15:53;;;;;;;8.93;5.33;;;;;;;12.95;65.38;101860.81;5054993;28;20518;-76
2023/05/07 08:18:24;;;;;;;4.77;4.27;;;;;;;13.25;63.92;101862.38;5030763;28;20537;-74
2023/05/07 08:20:54;;;;;;;4.97;4.43;;;;;;;13.27;63.10;101864.88;5030191;28;20474;-77
2023/05/07 08:23:27;;;;;;;5.50;3.90;;;;;;;13.46;62.65;101870.50;5032103;28;20987;-75
2023/05/07 08:25:56;;;;;;;4.03;3.63;;;;;;;13.59;62.32;101863.47;5030551;28;20447;-75
2023/05/07 08:28:26;;;;;;;8.03;4.87;;;;;;;13.41;62.26;101867.50;5034771;28;20414;-74
2023/05/07 08:30:59;;;;;;;5.03;4.10;;;;;;;13.35;62.31;101876.47;5051657;28;21064;-74
2023/05/07 08:33:32;;;;;;;6.70;4.90;;;;;;;13.74;62.24;101864.22;5031095;28;20927;-73
2023/05/07 08:36:03;;;;;;;7.07;4.27;;;;;;;14.06;60.61;101871.72;5038996;28;20971;-75
2023/05/07 08:38:33;;;;;;;6.30;5.80;;;;;;;13.68;60.55;101867.72;5026253;28;21020;-73
2023/05/07 08:41:07;;;;;;;4.13;3.73;;;;;;;13.51;61.64;101874.53;5030053;28;20435;-75
2023/05/07 08:43:39;;;;;;;5.33;4.27;;;;;;;13.52;61.43;101873.44;5028611;28;20462;-75
2023/05/07 08:46:11;;;;;;;4.50;3.77;;;;;;;13.87;60.54;101877.88;5050145;28;20432;-76
2023/05/07 08:48:44;;;;;;;4.17;3.63;;;;;;;14.18;60.04;101863.84;5052456;28;20934;-76
2023/05/07 08:51:18;;;;;;;4.70;4.17;;;;;;;14.40;59.06;101868.13;5051586;28;20417;-75
2023/05/07 08:53:49;;;;;;;4.53;4.07;;;;;;;14.18;59.65;101874.72;5027887;28;20518;-75
2023/05/07 08:56:25;;;;;;;4.20;3.50;;;;;;;14.05;60.39;101875.47;5030932;28;20422;-77
2023/05/07 08:58:58;;;;;;;5.33;4.73;;;;;;;14.14;60.74;101873.41;5027168;28;20444;-74
2023/05/07 09:01:30;;;;;;;5.10;3.80;;;;;;;14.64;59.21;101881.22;5035016;28;20435;-77
2023/05/07 09:04:00;;;;;;;4.67;4.27;;;;;;;14.96;57.33;101876.88;5053867;28;20455;-76
2023/05/07 09:06:31;;;;;;;6.83;4.17;;;;;;;15.16;56.56;101868.72;5032134;28;20450;-76
2023/05/07 09:09:05;;;;;;;5.10;3.80;;;;;;;15.13;56.80;101880.91;5033749;28;20433;-74
2023/05/07 09:11:38;;;;;;;5.77;4.27;;;;;;;15.39;56.18;101876.50;5048521;28;20528;-75
2023/05/07 09:14:07;;;;;;;6.50;4.00;;;;;;;15.68;54.67;101869.78;5025635;28;20440;-76
2023/05/07 09:16:42;;;;;;;3.17;2.50;;;;;;;16.19;52.87;101869.88;5031652;28;20464;-76
2023/05/07 09:19:11;;;;;;;4.37;3.60;;;;;;;16.10;52.41;101872.00;5043402;28;20460;-76
2023/05/07 09:21:46;;;;;;;4.17;3.77;;;;;;;16.28;52.06;101874.03;5028928;28;20494;-77
2023/05/07 09:24:17;;;;;;;6.00;3.90;;;;;;;15.53;53.92;101886.41;5031664;28;20548;-75
2023/05/07 09:26:46;;;;;;;4.33;2.77;;;;;;;15.17;55.29;101884.88;5033158;28;20422;-77
2023/05/07 09:29:18;;;;;;;5.53;4.07;;;;;;;15.44;55.28;101890.34;5036790;28;20445;-74
2023/05/07 09:31:49;;;;;;;4.50;3.83;;;;;;;15.79;53.30;101886.34;5027488;28;20443;-73
2023/05/07 09:34:19;;;;;;;3.40;3.00;;;;;;;15.83;53.04;101882.13;5054900;28;20449;-78
2023/05/07 09:36:52;;;;;;;4.13;3.83;;;;;;;15.48;54.56;101886.16;5024400;28;20422;-76
2023/05/07 09:39:23;;;;;;;6.30;4.63;;;;;;;15.78;54.09;101879.19;5028278;28;20622;-75
2023/05/07 09:41:54;;;;;;;4.73;4.43;;;;;;;15.94;52.75;101897.88;5050515;28;20441;-75
2023/05/07 09:44:34;;;;;;;4.23;3.40;;;;;;;15.13;54.13;101886.34;5025929;28;20493;-75
2023/05/07 09:47:07;;;;;;;4.33;3.93;;;;;;;14.81;55.84;101880.84;5048189;28;20490;-75
2023/05/07 09:49:47;;;;;;;3.90;3.47;;;;;;;15.33;54.79;101883.63;5044587;28;20439;-77
2023/05/07 09:52:21;;;;;;;3.10;2.77;;;;;;;14.89;55.29;101894.28;5027057;28;20476;-76
2023/05/07 09:54:56;;;;;;;4.20;3.50;;;;;;;15.19;55.36;101896.44;5032768;28;20464;-77
2023/05/07 09:57:28;;;;;;;3.80;3.40;;;;;;;15.44;54.81;101898.53;5025315;28;20415;-74
2023/05/07 10:00:04;;;;;;;3.83;2.97;;;;;;;15.91;53.60;101895.56;5024691;28;20440;-74
2023/05/07 10:02:46;;;;;;;3.63;3.03;;;;;;;16.21;51.75;101895.94;5050416;28;20763;-76
2023/05/07 10:05:16;;;;;;;3.57;2.70;;;;;;;16.12;51.86;101885.44;5030991;28;20465;-77
2023/05/07 10:07:46;;;;;;;3.70;3.40;;;;;;;16.01;52.31;101895.97;5024486;28;20965;-77
2023/05/07 10:10:16;;;;;;;5.07;3.57;;;;;;;15.52;53.73;101901.06;5030750;28;20999;-73
2023/05/07 10:12:47;;;;;;;3.70;2.83;;;;;;;15.56;53.81;101892.25;5025658;28;20471;-76
2023/05/07 10:15:24;;;;;;;7.47;3.47;;;;;;;15.47;54.02;101895.38;5030768;28;21234;-76
2023/05/07 10:17:58;;;;;;;5.17;3.20;;;;;;;15.26;54.65;101898.31;5033827;28;20520;-77
2023/05/07 10:20:28;;;;;;;4.50;3.10;;;;;;;15.10;53.89;101889.47;5052139;28;20466;-76
2023/05/07 10:22:59;;;;;;;7.30;2.97;;;;;;;15.19;54.60;101912.78;5033130;28;20415;-76
2023/05/07 10:25:36;;;;;;;3.87;2.80;;;;;;;15.05;54.68;101902.91;5031585;28;20522;-74
2023/05/07 10:28:14;;;;;;;2.50;2.30;;;;;;;14.96;54.87;101911.50;5033717;28;20440;-75
2023/05/07 10:31:01;;;;;;;3.30;2.40;;;;;;;15.16;54.58;101899.56;5028385;28;20463;-76
2023/05/07 10:33:40;;;;;;;4.00;2.93;;;;;;;15.32;54.04;101906.50;5029463;28;20900;-76
2023/05/07 10:36:11;;;;;;;3.27;2.50;;;;;;;15.19;54.07;101901.03;5029128;28;20424;-76
2023/05/07 10:38:40;;;;;;;2.70;2.30;;;;;;;15.50;53.19;101897.69;5024784;28;20416;-75
2023/05/07 10:41:12;;;;;;;2.73;2.53;;;;;;;15.16;53.39;101896.81;5029643;28;20448;-77
2023/05/07 10:43:45;;;;;;;3.27;2.40;;;;;;;15.03;54.01;101896.81;5039093;28;20438;-74
2023/05/07 10:46:40;;;;;;;2.90;2.70;;;;;;;14.75;54.68;101899.69;5047980;28;20784;-75
2023/05/07 10:49:23;;;;;;;2.10;1.90;;;;;;;14.73;54.65;101900.94;5035959;28;20455;-76
2023/05/07 10:52:16;;;;;;;3.53;2.70;;;;;;;14.98;54.90;101902.03;5044066;28;20432;-74
2023/05/07 10:55:25;;;;;;;3.60;2.67;;;;;;;15.42;53.12;101906.91;5045760;28;20548;-77
2023/05/07 10:58:31;;;;;;;4.73;4.23;;;;;;;15.74;51.96;101904.41;5033264;28;20466;-77
2023/05/07 11:01:12;;;;;;;4.90;3.30;;;;;;;15.66;52.15;101891.81;5032692;28;20443;-76
2023/05/07 11:04:14;;;;;;;6.90;4.73;;;;;;;15.54;52.17;101893.53;5024604;28;20509;-77
2023/05/07 11:07:25;;;;;;;3.20;2.90;;;;;;;15.09;53.39;101906.06;5027354;28;20411;-75
2023/05/07 11:10:06;;;;;;;3.90;3.13;;;;;;;15.23;53.27;101897.69;5037653;28;20423;-76
2023/05/07 11:12:56;;;;;;;3.50;2.90;;;;;;;15.01;53.59;101898.91;5043664;28;20428;-75
2023/05/07 11:15:44;;;;;;;5.90;2.93;;;;;;;15.36;53.43;101896.00;5028992;28;20430;-74
2023/05/07 11:18:49;;;;;;;3.03;2.67;;;;;;;16.00;51.25;101888.00;5031897;28;20419;-73
2023/05/07 11:21:40;;;;;;;2.80;2.27;;;;;;;16.22;50.21;101891.28;5041764;28;21261;-75
2023/05/07 11:24:27;;;;;;;2.20;2.00;;;;;;;16.14;50.39;101888.78;5030986;28;20952;-74
2023/05/07 11:27:04;;;;;;;4.00;2.40;;;;;;;16.22;49.88;101885.81;5028728;28;20414;-75
2023/05/07 11:29:34;;;;;;;3.00;2.50;;;;;;;16.11;49.56;101878.31;5025264;28;20508;-74
2023/05/07 11:32:10;;;;;;;4.10;3.00;;;;;;;15.50;51.00;101884.03;5052795;28;20448;-75
2023/05/07 11:34:48;;;;;;;2.90;2.20;;;;;;;15.80;51.89;101882.56;5037397;28;20486;-75
2023/05/07 11:37:20;;;;;;;2.80;2.60;;;;;;;16.35;49.91;101880.31;5023419;28;20716;-74
2023/05/07 11:40:05;;;;;;;6.90;3.47;;;;;;;16.60;49.58;101892.22;5020204;28;20790;-73
2023/05/07 11:42:37;;;;;;;2.73;2.50;;;;;;;16.78;47.92;101881.41;5043932;28;20432;-75